createdAt,value
2023-02-11T00:00:46.283Z,-3.95
2023-02-11T00:03:12.833Z,-3.96
2023-02-11T00:05:39.367Z,-3.99
2023-02-11T00:08:06.052Z,-4.00
2023-02-11T00:10:32.576Z,-4.02
2023-02-11T00:12:59.071Z,-4.05
2023-02-11T00:15:25.608Z,-4.07
2023-02-11T00:17:52.078Z,-4.08
2023-02-11T00:20:18.650Z,-4.11
2023-02-11T00:22:45.167Z,-4.13
2023-02-11T00:25:11.669Z,-4.15
2023-02-11T00:27:38.150Z,-4.16
2023-02-11T00:30:05.474Z,-4.18
2023-02-11T00:32:32.157Z,-4.19
2023-02-11T00:34:58.643Z,-4.21
2023-02-11T00:37:25.132Z,-4.21
2023-02-11T00:39:51.680Z,-4.23
2023-02-11T00:42:18.175Z,-4.24
2023-02-11T00:44:44.662Z,-4.25
2023-02-11T00:47:11.179Z,-4.26
2023-02-11T00:49:37.894Z,-4.26
2023-02-11T00:52:04.595Z,-4.27
2023-02-11T00:54:31.108Z,-4.28
2023-02-11T00:56:57.588Z,-4.29
2023-02-11T00:59:24.079Z,-4.29
2023-02-11T01:01:50.559Z,-4.27
2023-02-11T01:04:17.039Z,-4.27
2023-02-11T01:06:43.594Z,-4.28
2023-02-11T01:09:10.108Z,-4.29
2023-02-11T01:11:36.603Z,-4.30
2023-02-11T01:14:03.262Z,-4.31
2023-02-11T01:16:29.904Z,-4.32
2023-02-11T01:18:56.412Z,-4.33
2023-02-11T01:21:22.980Z,-4.34
2023-02-11T01:23:49.495Z,-4.36
2023-02-11T01:26:16.148Z,-4.38
2023-02-11T01:28:42.744Z,-4.39
2023-02-11T01:31:09.374Z,-4.39
2023-02-11T01:33:36.073Z,-4.40
2023-02-11T01:36:04.610Z,-4.42
2023-02-11T01:38:32.123Z,-4.45
2023-02-11T01:41:05.391Z,-4.46
2023-02-11T01:43:36.225Z,-4.48
2023-02-11T01:46:20.776Z,-4.49
2023-02-11T01:48:53.181Z,-4.50
2023-02-11T01:51:27.744Z,-4.51
2023-02-11T01:53:56.190Z,-4.54
2023-02-11T01:56:25.108Z,-4.57
2023-02-11T01:58:57.278Z,-4.59
2023-02-11T02:01:25.578Z,-4.61
2023-02-11T02:03:56.776Z,-4.65
2023-02-11T02:06:30.018Z,-4.68
2023-02-11T02:09:02.895Z,-4.69
2023-02-11T02:11:29.611Z,-4.71
2023-02-11T02:13:56.277Z,-4.71
2023-02-11T02:16:30.315Z,-4.72
2023-02-11T02:18:59.790Z,-4.73
2023-02-11T02:21:38.553Z,-4.74
2023-02-11T02:24:34.102Z,-4.77
2023-02-11T02:27:45.761Z,-4.80
2023-02-11T02:30:40.109Z,-4.83
2023-02-11T02:33:28.237Z,-4.85
2023-02-11T02:36:00.529Z,-4.87
2023-02-11T02:38:52.789Z,-4.89
2023-02-11T02:41:23.598Z,-4.92
2023-02-11T02:43:51.578Z,-4.95
2023-02-11T02:46:30.099Z,-4.96
2023-02-11T02:48:57.580Z,-4.98
2023-02-11T02:51:50.260Z,-5.00
2023-02-11T02:54:38.379Z,-5.01
2023-02-11T02:57:04.799Z,-5.02
2023-02-11T03:00:02.402Z,-5.05
2023-02-11T03:02:40.345Z,-5.05
2023-02-11T03:05:22.186Z,-5.07
2023-02-11T03:07:56.904Z,-5.09
2023-02-11T03:10:30.188Z,-5.11
2023-02-11T03:12:57.328Z,-5.13
2023-02-11T03:15:28.155Z,-5.16
2023-02-11T03:17:58.275Z,-5.18
2023-02-11T03:20:25.734Z,-5.19
2023-02-11T03:22:55.095Z,-5.21
2023-02-11T03:25:28.506Z,-5.21
2023-02-11T03:28:05.663Z,-5.21
2023-02-11T03:30:41.412Z,-5.21
2023-02-11T03:33:35.931Z,-5.21
2023-02-11T03:36:12.067Z,-5.20
2023-02-11T03:38:47.285Z,-5.20
2023-02-11T03:41:17.720Z,-5.21
2023-02-11T03:43:48.596Z,-5.22
2023-02-11T03:46:19.231Z,-5.22
2023-02-11T03:48:50.959Z,-5.24
2023-02-11T03:51:18.227Z,-5.23
2023-02-11T03:53:46.739Z,-5.23
2023-02-11T03:56:19.707Z,-5.23
2023-02-11T03:58:46.337Z,-5.23
2023-02-11T04:01:12.895Z,-5.24
2023-02-11T04:03:39.514Z,-5.27
2023-02-11T04:06:06.440Z,-5.27
2023-02-11T04:08:33.028Z,-5.27
2023-02-11T04:10:59.538Z,-5.28
2023-02-11T04:13:26.172Z,-5.29
2023-02-11T04:15:52.934Z,-5.29
2023-02-11T04:18:19.848Z,-5.29
2023-02-11T04:20:46.433Z,-5.29
2023-02-11T04:23:12.961Z,-5.31
2023-02-11T04:25:39.455Z,-5.32
2023-02-11T04:28:06.037Z,-5.32
2023-02-11T04:30:32.571Z,-5.34
2023-02-11T04:32:59.208Z,-5.37
2023-02-11T04:35:25.958Z,-5.38
2023-02-11T04:37:52.436Z,-5.39
2023-02-11T04:40:18.975Z,-5.41
2023-02-11T04:42:45.482Z,-5.43
2023-02-11T04:45:11.977Z,-5.47
2023-02-11T04:47:38.485Z,-5.50
2023-02-11T04:50:05.548Z,-5.53
2023-02-11T04:52:32.132Z,-5.56
2023-02-11T04:54:58.611Z,-5.58
2023-02-11T04:57:25.129Z,-5.60
2023-02-11T04:59:51.642Z,-5.62
2023-02-11T05:02:18.111Z,-5.65
2023-02-11T05:04:44.657Z,-5.67
2023-02-11T05:07:11.216Z,-5.70
2023-02-11T05:09:37.812Z,-5.72
2023-02-11T05:12:04.421Z,-5.72
2023-02-11T05:14:30.895Z,-5.74
2023-02-11T05:16:57.421Z,-5.76
2023-02-11T05:19:23.962Z,-5.77
2023-02-11T05:22:01.650Z,-5.78
2023-02-11T05:24:28.987Z,-5.79
2023-02-11T05:26:55.483Z,-5.79
2023-02-11T05:29:21.952Z,-5.80
2023-02-11T05:31:48.483Z,-5.83
2023-02-11T05:34:15.065Z,-5.85
2023-02-11T05:36:41.647Z,-5.87
2023-02-11T05:39:08.197Z,-5.88
2023-02-11T05:41:34.703Z,-5.88
2023-02-11T05:44:01.284Z,-5.87
2023-02-11T05:46:28.285Z,-5.87
2023-02-11T05:48:54.912Z,-5.86
2023-02-11T05:51:21.455Z,-5.85
2023-02-11T05:53:47.941Z,-5.84
2023-02-11T05:56:14.796Z,-5.81
2023-02-11T05:58:41.292Z,-5.77
2023-02-11T06:01:07.806Z,-5.76
2023-02-11T06:03:34.394Z,-5.73
2023-02-11T06:06:01.422Z,-5.72
2023-02-11T06:08:31.077Z,-5.69
2023-02-11T06:10:57.711Z,-5.64
2023-02-11T06:13:24.199Z,-5.60
2023-02-11T06:15:58.764Z,-5.54
2023-02-11T06:18:25.766Z,-5.51
2023-02-11T06:20:52.555Z,-5.47
2023-02-11T06:23:19.163Z,-5.41
2023-02-11T06:25:45.782Z,-5.35
2023-02-11T06:28:12.421Z,-5.30
2023-02-11T06:30:39.067Z,-5.24
2023-02-11T06:33:05.675Z,-5.17
2023-02-11T06:35:32.311Z,-5.10
2023-02-11T06:37:59.356Z,-5.04
2023-02-11T06:40:25.893Z,-4.96
2023-02-11T06:42:52.722Z,-4.88
2023-02-11T06:45:19.288Z,-4.79
2023-02-11T06:47:45.791Z,-4.68
2023-02-11T06:50:14.335Z,-4.57
2023-02-11T06:52:41.030Z,-4.44
2023-02-11T06:55:07.713Z,-4.30
2023-02-11T06:57:34.239Z,-4.17
2023-02-11T07:00:00.762Z,-4.06
2023-02-11T07:02:27.375Z,-3.99
2023-02-11T07:04:53.868Z,-3.91
2023-02-11T07:07:20.382Z,-3.83
2023-02-11T07:09:46.874Z,-3.76
2023-02-11T07:12:13.381Z,-3.71
2023-02-11T07:14:40.275Z,-3.67
2023-02-11T07:17:06.790Z,-3.64
2023-02-11T07:19:33.257Z,-3.61
2023-02-11T07:21:59.862Z,-3.57
2023-02-11T07:24:26.397Z,-3.50
2023-02-11T07:26:54.010Z,-3.45
2023-02-11T07:29:20.511Z,-3.38
2023-02-11T07:31:47.251Z,-3.27
2023-02-11T07:34:13.798Z,-3.10
2023-02-11T07:36:40.286Z,-2.89
2023-02-11T07:39:06.752Z,-2.70
2023-02-11T07:41:35.344Z,-2.48
2023-02-11T07:44:03.751Z,-2.26
2023-02-11T07:46:30.251Z,-2.06
2023-02-11T07:48:56.754Z,-1.87
2023-02-11T07:51:26.314Z,-1.67
2023-02-11T07:53:53.780Z,-1.50
2023-02-11T07:56:21.468Z,-1.37
2023-02-11T07:58:48.547Z,-1.26
2023-02-11T08:01:20.643Z,-1.17
2023-02-11T08:03:47.179Z,-1.11
2023-02-11T08:06:16.546Z,-1.02
2023-02-11T08:08:43.162Z,-0.93
2023-02-11T08:11:12.246Z,-0.87
2023-02-11T08:13:39.072Z,-0.82
2023-02-11T08:16:06.256Z,-0.74
2023-02-11T08:18:33.554Z,-0.64
2023-02-11T08:21:10.431Z,-0.54
2023-02-11T08:23:39.257Z,-0.47
2023-02-11T08:26:14.587Z,-0.38
2023-02-11T08:28:43.809Z,-0.34
2023-02-11T08:31:32.777Z,-0.28
2023-02-11T08:33:59.926Z,-0.23
2023-02-11T08:36:28.943Z,-0.15
2023-02-11T08:39:15.954Z,-0.09
2023-02-11T08:41:44.644Z,-0.00
2023-02-11T08:44:11.257Z,0.10
2023-02-11T08:46:37.870Z,0.21
2023-02-11T08:49:04.660Z,0.32
2023-02-11T08:51:33.218Z,0.40
2023-02-11T08:54:00.668Z,0.45
2023-02-11T08:56:28.192Z,0.54
2023-02-11T08:58:55.139Z,0.69
2023-02-11T09:01:24.117Z,0.90
2023-02-11T09:03:50.962Z,1.14
2023-02-11T09:06:18.251Z,1.84
2023-02-11T09:08:48.180Z,3.06
2023-02-11T09:11:15.775Z,3.59
2023-02-11T09:13:43.599Z,3.74
2023-02-11T09:16:17.936Z,3.95
2023-02-11T09:18:44.528Z,4.34
2023-02-11T09:21:12.233Z,4.33
2023-02-11T09:23:38.963Z,4.49
2023-02-11T09:26:13.767Z,4.97
2023-02-11T09:28:40.543Z,5.61
2023-02-11T09:31:10.061Z,6.77
2023-02-11T09:33:37.848Z,8.72
2023-02-11T09:36:05.752Z,10.58
2023-02-11T09:38:33.008Z,12.51
2023-02-11T09:40:59.920Z,14.26
2023-02-11T09:43:46.677Z,15.53
2023-02-11T09:46:17.512Z,16.66
2023-02-11T09:48:46.344Z,17.11
2023-02-11T09:51:20.467Z,17.60
2023-02-11T09:53:51.231Z,18.12
2023-02-11T09:56:17.755Z,18.38
2023-02-11T09:58:45.001Z,18.88
2023-02-11T10:01:14.531Z,19.64
2023-02-11T10:03:52.940Z,19.92
2023-02-11T10:06:33.233Z,19.06
2023-02-11T10:09:30.223Z,17.87
2023-02-11T10:12:27.503Z,16.49
2023-02-11T10:15:12.971Z,14.97
2023-02-11T10:17:45.518Z,13.62
2023-02-11T10:20:27.227Z,13.01
2023-02-11T10:22:55.117Z,12.50
2023-02-11T10:25:23.360Z,11.88
2023-02-11T10:27:51.438Z,11.21
2023-02-11T10:30:24.007Z,10.69
2023-02-11T10:33:11.972Z,10.42
2023-02-11T10:35:38.551Z,10.81
2023-02-11T10:38:05.066Z,11.11
2023-02-11T10:40:32.333Z,11.89
2023-02-11T10:43:02.729Z,13.48
2023-02-11T10:45:47.322Z,15.16
2023-02-11T10:48:53.042Z,16.60
2023-02-11T10:51:24.811Z,18.08
2023-02-11T10:54:17.647Z,18.07
2023-02-11T10:56:58.493Z,17.45
2023-02-11T10:59:35.537Z,16.98
2023-02-11T11:02:20.452Z,18.00
2023-02-11T11:04:47.782Z,19.64
2023-02-11T11:07:26.761Z,21.27
2023-02-11T11:10:00.342Z,22.71
2023-02-11T11:12:40.986Z,22.14
2023-02-11T11:15:11.291Z,20.46
2023-02-11T11:17:38.549Z,18.78
2023-02-11T11:20:24.822Z,18.85
2023-02-11T11:22:54.254Z,19.47
2023-02-11T11:25:29.176Z,18.86
2023-02-11T11:28:01.158Z,17.17
2023-02-11T11:30:34.259Z,15.97
2023-02-11T11:33:01.522Z,15.05
2023-02-11T11:35:31.216Z,14.08
2023-02-11T11:38:03.386Z,13.44
2023-02-11T11:40:32.510Z,12.89
2023-02-11T11:43:07.050Z,12.55
2023-02-11T11:45:33.656Z,12.21
2023-02-11T11:48:26.296Z,11.80
2023-02-11T11:51:02.116Z,11.93
2023-02-11T11:53:41.562Z,12.06
2023-02-11T11:56:20.112Z,12.11
2023-02-11T11:58:47.143Z,12.11
2023-02-11T12:01:47.171Z,13.10
2023-02-11T12:04:52.376Z,15.05
2023-02-11T12:07:34.980Z,17.26
2023-02-11T12:10:01.426Z,18.25
2023-02-11T12:12:45.839Z,17.60
2023-02-11T12:15:28.560Z,15.98
2023-02-11T12:18:16.237Z,14.86
2023-02-11T12:20:58.010Z,13.97
2023-02-11T12:23:37.517Z,13.25
2023-02-11T12:26:10.161Z,12.53
2023-02-11T12:28:55.509Z,11.81
2023-02-11T12:32:06.553Z,11.29
2023-02-11T12:34:48.030Z,10.96
2023-02-11T12:37:20.442Z,10.71
2023-02-11T12:39:57.049Z,10.69
2023-02-11T12:42:50.866Z,10.69
2023-02-11T12:46:03.993Z,10.80
2023-02-11T12:49:08.246Z,10.90
2023-02-11T12:51:46.774Z,10.90
2023-02-11T12:54:37.153Z,10.95
2023-02-11T12:57:18.349Z,11.05
2023-02-11T13:00:00.065Z,11.32
2023-02-11T13:02:29.812Z,11.47
2023-02-11T13:05:05.166Z,11.34
2023-02-11T13:07:39.480Z,11.19
2023-02-11T13:10:27.395Z,11.05
2023-02-11T13:12:56.183Z,10.92
2023-02-11T13:15:22.670Z,10.78
2023-02-11T13:17:59.285Z,10.55
2023-02-11T13:20:40.674Z,10.47
2023-02-11T13:23:31.499Z,10.36
2023-02-11T13:26:08.109Z,10.57
2023-02-11T13:28:37.857Z,10.95
2023-02-11T13:31:05.224Z,11.03
2023-02-11T13:33:33.565Z,11.01
2023-02-11T13:36:00.730Z,10.96
2023-02-11T13:38:30.410Z,10.89
2023-02-11T13:41:06.424Z,10.75
2023-02-11T13:43:35.239Z,10.49
2023-02-11T13:46:09.597Z,10.20
2023-02-11T13:48:38.855Z,9.94
2023-02-11T13:51:11.522Z,9.70
2023-02-11T13:53:45.626Z,9.51
2023-02-11T13:56:24.040Z,9.33
2023-02-11T13:58:51.452Z,9.10
2023-02-11T14:01:41.021Z,8.93
2023-02-11T14:04:23.416Z,8.72
2023-02-11T14:07:26.222Z,8.54
2023-02-11T14:09:52.779Z,8.37
2023-02-11T14:12:32.139Z,8.24
2023-02-11T14:15:07.868Z,8.07
2023-02-11T14:17:35.101Z,7.92
2023-02-11T14:20:12.058Z,7.81
2023-02-11T14:22:50.781Z,7.72
2023-02-11T14:25:25.412Z,7.65
2023-02-11T14:27:57.834Z,7.60
2023-02-11T14:30:29.682Z,7.54
2023-02-11T14:33:29.949Z,7.44
2023-02-11T14:36:08.430Z,7.36
2023-02-11T14:39:06.625Z,7.28
2023-02-11T14:41:40.755Z,7.23
2023-02-11T14:44:17.057Z,7.18
2023-02-11T14:46:46.094Z,7.14
2023-02-11T14:49:24.306Z,7.11
2023-02-11T14:51:52.709Z,7.07
2023-02-11T14:54:23.762Z,7.02
2023-02-11T14:57:13.075Z,6.97
2023-02-11T14:59:40.881Z,6.93
2023-02-11T15:02:22.319Z,6.91
2023-02-11T15:04:49.011Z,6.89
2023-02-11T15:07:16.312Z,6.87
2023-02-11T15:09:52.472Z,6.86
2023-02-11T15:12:28.563Z,6.84
2023-02-11T15:14:58.900Z,6.81
2023-02-11T15:17:29.208Z,6.80
2023-02-11T15:19:59.921Z,6.79
2023-02-11T15:22:29.478Z,6.76
2023-02-11T15:25:09.034Z,6.70
2023-02-11T15:27:40.074Z,6.66
2023-02-11T15:30:21.982Z,6.60
2023-02-11T15:32:54.679Z,6.56
2023-02-11T15:35:21.338Z,6.53
2023-02-11T15:37:50.324Z,6.49
2023-02-11T15:40:20.311Z,6.44
2023-02-11T15:42:56.241Z,6.41
2023-02-11T15:45:26.589Z,6.37
2023-02-11T15:47:56.412Z,6.33
2023-02-11T15:50:32.460Z,6.29
2023-02-11T15:53:17.550Z,6.24
2023-02-11T15:55:44.288Z,6.18
2023-02-11T15:58:11.682Z,6.12
2023-02-11T16:00:47.666Z,6.06
2023-02-11T16:03:24.660Z,6.00
2023-02-11T16:05:51.683Z,5.96
2023-02-11T16:08:36.225Z,5.93
2023-02-11T16:11:06.460Z,5.89
2023-02-11T16:13:32.938Z,5.85
2023-02-11T16:16:16.775Z,5.81
2023-02-11T16:19:04.938Z,5.77
2023-02-11T16:21:35.673Z,5.75
2023-02-11T16:24:02.654Z,5.72
2023-02-11T16:26:34.715Z,5.70
2023-02-11T16:29:14.794Z,5.68
2023-02-11T16:31:45.542Z,5.65
2023-02-11T16:34:21.241Z,5.63
2023-02-11T16:36:48.911Z,5.60
2023-02-11T16:39:16.624Z,5.57
2023-02-11T16:41:43.480Z,5.50
2023-02-11T16:44:09.989Z,5.44
2023-02-11T16:46:37.502Z,5.41
2023-02-11T16:49:16.098Z,5.37
2023-02-11T16:51:48.859Z,5.33
2023-02-11T16:54:18.885Z,5.30
2023-02-11T16:56:46.032Z,5.28
2023-02-11T16:59:12.589Z,5.26
2023-02-11T17:01:40.900Z,5.25
2023-02-11T17:04:10.660Z,5.24
2023-02-11T17:06:37.194Z,5.23
2023-02-11T17:09:03.662Z,5.20
2023-02-11T17:11:30.188Z,5.17
2023-02-11T17:13:56.710Z,5.13
2023-02-11T17:16:23.864Z,5.12
2023-02-11T17:18:50.952Z,5.09
2023-02-11T17:21:18.799Z,5.08
2023-02-11T17:23:45.321Z,5.08
2023-02-11T17:26:11.796Z,5.07
2023-02-11T17:28:38.357Z,5.07
2023-02-11T17:31:09.117Z,5.05
2023-02-11T17:33:36.324Z,5.03
2023-02-11T17:36:07.672Z,4.99
2023-02-11T17:38:35.389Z,4.97
2023-02-11T17:41:03.438Z,4.95
2023-02-11T17:43:30.371Z,4.94
2023-02-11T17:45:57.298Z,4.94
2023-02-11T17:48:24.638Z,4.93
2023-02-11T17:50:51.113Z,4.92
2023-02-11T17:53:17.609Z,4.90
2023-02-11T17:55:44.082Z,4.89
2023-02-11T17:58:10.668Z,4.86
2023-02-11T18:00:37.311Z,4.84
2023-02-11T18:03:03.848Z,4.83
2023-02-11T18:05:37.432Z,4.83
2023-02-11T18:08:06.113Z,4.82
2023-02-11T18:10:33.578Z,4.79
2023-02-11T18:13:00.951Z,4.76
2023-02-11T18:15:27.527Z,4.73
2023-02-11T18:17:55.461Z,4.71
2023-02-11T18:20:22.103Z,4.72
2023-02-11T18:22:48.645Z,4.71
2023-02-11T18:25:15.793Z,4.68
2023-02-11T18:27:42.261Z,4.65
2023-02-11T18:30:15.143Z,4.61
2023-02-11T18:32:41.634Z,4.56
2023-02-11T18:35:12.629Z,4.52
2023-02-11T18:37:41.526Z,4.49
2023-02-11T18:40:09.866Z,4.46
2023-02-11T18:42:37.018Z,4.43
2023-02-11T18:45:05.372Z,4.41
2023-02-11T18:47:31.862Z,4.39
2023-02-11T18:49:58.365Z,4.37
2023-02-11T18:52:24.898Z,4.35
2023-02-11T18:54:51.653Z,4.34
2023-02-11T18:57:18.258Z,4.34
2023-02-11T18:59:44.784Z,4.33
2023-02-11T19:02:11.277Z,4.32
2023-02-11T19:04:37.945Z,4.31
2023-02-11T19:07:04.501Z,4.31
2023-02-11T19:09:31.082Z,4.32
2023-02-11T19:11:57.604Z,4.34
2023-02-11T19:14:29.307Z,4.37
2023-02-11T19:16:57.580Z,4.40
2023-02-11T19:19:26.621Z,4.41
2023-02-11T19:21:53.287Z,4.42
2023-02-11T19:24:20.753Z,4.42
2023-02-11T19:26:49.356Z,4.43
2023-02-11T19:29:16.684Z,4.45
2023-02-11T19:31:44.118Z,4.47
2023-02-11T19:34:12.038Z,4.48
2023-02-11T19:36:38.552Z,4.49
2023-02-11T19:39:05.723Z,4.48
2023-02-11T19:41:33.601Z,4.49
2023-02-11T19:44:01.592Z,4.49
2023-02-11T19:46:31.152Z,4.51
2023-02-11T19:48:59.188Z,4.52
2023-02-11T19:51:25.716Z,4.53
2023-02-11T19:53:52.225Z,4.53
2023-02-11T19:56:20.848Z,4.54
2023-02-11T19:58:47.468Z,4.54
2023-02-11T20:01:17.124Z,4.54
2023-02-11T20:03:43.784Z,4.54
2023-02-11T20:06:31.608Z,4.54
2023-02-11T20:09:00.595Z,4.53
2023-02-11T20:11:29.709Z,4.52
2023-02-11T20:13:57.319Z,4.51
2023-02-11T20:16:40.645Z,4.51
2023-02-11T20:19:11.704Z,4.51
2023-02-11T20:21:38.213Z,4.49
2023-02-11T20:24:04.914Z,4.46
2023-02-11T20:26:32.869Z,4.45
2023-02-11T20:29:01.090Z,4.43
2023-02-11T20:31:29.618Z,4.38
2023-02-11T20:33:56.188Z,4.34
2023-02-11T20:36:24.590Z,4.28
2023-02-11T20:38:51.530Z,4.22
2023-02-11T20:41:24.847Z,4.21
2023-02-11T20:43:54.001Z,4.25
2023-02-11T20:46:24.094Z,4.31
2023-02-11T20:48:52.245Z,4.38
2023-02-11T20:51:25.719Z,4.45
2023-02-11T20:53:52.985Z,4.52
2023-02-11T20:56:22.575Z,4.59
2023-02-11T20:58:49.734Z,4.65
2023-02-11T21:01:23.123Z,4.71
2023-02-11T21:03:51.193Z,4.76
2023-02-11T21:06:18.865Z,4.79
2023-02-11T21:08:45.488Z,4.81
2023-02-11T21:11:12.052Z,4.84
2023-02-11T21:13:40.866Z,4.86
2023-02-11T21:16:08.780Z,4.87
2023-02-11T21:18:35.367Z,4.89
2023-02-11T21:21:02.192Z,4.90
2023-02-11T21:23:29.121Z,4.91
2023-02-11T21:25:56.872Z,4.92
2023-02-11T21:28:24.345Z,4.92
2023-02-11T21:30:51.028Z,4.93
2023-02-11T21:33:17.565Z,4.93
2023-02-11T21:35:44.052Z,4.92
2023-02-11T21:38:10.820Z,4.90
2023-02-11T21:40:38.522Z,4.88
2023-02-11T21:43:05.148Z,4.86
2023-02-11T21:45:32.532Z,4.84
2023-02-11T21:47:59.085Z,4.83
2023-02-11T21:50:25.580Z,4.83
2023-02-11T21:52:52.109Z,4.82
2023-02-11T21:55:18.688Z,4.82
2023-02-11T21:57:45.230Z,4.81
2023-02-11T22:00:15.080Z,4.80
2023-02-11T22:02:41.581Z,4.79
2023-02-11T22:05:08.396Z,4.79
2023-02-11T22:07:36.030Z,4.79
2023-02-11T22:10:03.880Z,4.78
2023-02-11T22:12:30.354Z,4.76
2023-02-11T22:14:56.831Z,4.73
2023-02-11T22:17:23.451Z,4.68
2023-02-11T22:19:50.206Z,4.64
2023-02-11T22:22:16.705Z,4.60
2023-02-11T22:24:43.409Z,4.57
2023-02-11T22:27:09.876Z,4.54
2023-02-11T22:29:36.483Z,4.50
2023-02-11T22:32:03.549Z,4.47
2023-02-11T22:34:30.103Z,4.43
2023-02-11T22:36:56.581Z,4.40
2023-02-11T22:39:23.209Z,4.35
2023-02-11T22:41:50.139Z,4.31
2023-02-11T22:44:16.923Z,4.28
2023-02-11T22:46:44.319Z,4.25
2023-02-11T22:49:14.079Z,4.21
2023-02-11T22:51:41.017Z,4.18
2023-02-11T22:54:17.418Z,4.15
2023-02-11T22:56:44.690Z,4.13
2023-02-11T22:59:14.337Z,4.10
2023-02-11T23:01:42.011Z,4.09
2023-02-11T23:04:12.291Z,4.08
2023-02-11T23:06:38.888Z,4.07
2023-02-11T23:09:07.493Z,4.05
2023-02-11T23:11:34.525Z,4.03
2023-02-11T23:14:02.239Z,4.01
2023-02-11T23:16:33.974Z,4.01
2023-02-11T23:19:04.041Z,3.99
2023-02-11T23:21:32.595Z,3.98
2023-02-11T23:24:06.559Z,3.98
2023-02-11T23:26:34.091Z,3.98
2023-02-11T23:29:00.686Z,3.97
2023-02-11T23:31:31.000Z,3.96
2023-02-11T23:33:57.862Z,3.95
2023-02-11T23:36:24.473Z,3.94
2023-02-11T23:38:51.768Z,3.94
2023-02-11T23:41:19.522Z,3.94
2023-02-11T23:43:55.088Z,3.95
2023-02-11T23:46:22.973Z,3.96
2023-02-11T23:48:50.756Z,3.95
2023-02-11T23:51:18.328Z,3.95
2023-02-11T23:53:44.814Z,3.94
2023-02-11T23:56:15.493Z,3.91
2023-02-11T23:58:41.992Z,3.91
